EWG5B EDDH-LIRP
Flight info
| Callsign | EWG5B |
|---|---|
| Flight time | 1h 50m |
| Altitude | 37000 |
| Route | AMLUH2G AMLUH M852 POVEL Z94 GALMA M736 ADOSA DCT OSBUL L153 OLKIS |
| Aircraft | A319/M-SDE3FGHIRWY/LB1 |
Departure
| Time | 2026-05-05 13:40 |
|---|---|
| Airport | Hamburg Helmut Schmidt Airport (EDDH) |
Arrival
| Time | 2026-05-05 15:31 |
|---|---|
| Airport | Pisa International Airport (LIRP) |
| Time | Latitude | Longitude | Altitude | Speed | Heading |
|---|---|---|---|---|---|
| 2026-05-05 13:07 | 53.62843 | 10.00218 | 62 ft | 0 kts | 62° |
| 2026-05-05 13:27 | 53.62839 | 10.00204 | 62 ft | 2 kts | 67° |
| 2026-05-05 13:28 | 53.62833 | 10.00182 | 62 ft | 2 kts | 63° |
| 2026-05-05 13:28 | 53.62828 | 10.00168 | 62 ft | 2 kts | 61° |
| 2026-05-05 13:28 | 53.62819 | 10.00148 | 62 ft | 2 kts | 39° |
| 2026-05-05 13:28 | 53.62806 | 10.00135 | 62 ft | 2 kts | 20° |
| 2026-05-05 13:29 | 53.62791 | 10.00129 | 62 ft | 2 kts | 2° |
| 2026-05-05 13:29 | 53.62776 | 10.00131 | 62 ft | 2 kts | 344° |
| 2026-05-05 13:29 | 53.62768 | 10.00136 | 62 ft | 1 kts | 334° |
| 2026-05-05 13:29 | 53.62775 | 10.00131 | 62 ft | 2 kts | 336° |
| 2026-05-05 13:30 | 53.62779 | 10.00128 | 62 ft | 0 kts | 336° |
| 2026-05-05 13:34 | 53.62783 | 10.00125 | 62 ft | 1 kts | 336° |
| 2026-05-05 13:35 | 53.62797 | 10.00114 | 62 ft | 3 kts | 334° |
| 2026-05-05 13:35 | 53.62821 | 10.00094 | 62 ft | 4 kts | 333° |
| 2026-05-05 13:35 | 53.62854 | 10.00058 | 62 ft | 6 kts | 308° |
| 2026-05-05 13:35 | 53.62852 | 9.99976 | 62 ft | 8 kts | 240° |
| 2026-05-05 13:36 | 53.62821 | 9.99887 | 62 ft | 9 kts | 243° |
| 2026-05-05 13:36 | 53.62834 | 9.99778 | 62 ft | 11 kts | 320° |
| 2026-05-05 13:36 | 53.62882 | 9.99733 | 62 ft | 0 kts | 333° |
| 2026-05-05 13:40 | 53.62899 | 9.99719 | 62 ft | 19 kts | 333° |
| 2026-05-05 13:40 | 53.63270 | 9.99406 | 62 ft | 96 kts | 333° |
| 2026-05-05 13:40 | 53.64063 | 9.98718 | 65 ft | 157 kts | 335° |
| 2026-05-05 13:40 | 53.65031 | 9.97882 | 667 ft | 158 kts | 336° |
| 2026-05-05 13:41 | 53.66014 | 9.97035 | 1357 ft | 162 kts | 337° |
| 2026-05-05 13:41 | 53.67014 | 9.96179 | 2018 ft | 167 kts | 337° |
| 2026-05-05 13:41 | 53.68086 | 9.95272 | 2592 ft | 177 kts | 336° |
| 2026-05-05 13:41 | 53.69206 | 9.94333 | 3250 ft | 183 kts | 336° |
| 2026-05-05 13:42 | 53.70347 | 9.93405 | 3889 ft | 189 kts | 340° |
| 2026-05-05 13:42 | 53.71688 | 9.93279 | 4335 ft | 204 kts | 18° |
| 2026-05-05 13:42 | 53.72916 | 9.94550 | 4838 ft | 219 kts | 43° |
| 2026-05-05 13:42 | 53.73784 | 9.96739 | 5422 ft | 234 kts | 70° |
| 2026-05-05 13:43 | 53.74080 | 9.99424 | 6294 ft | 236 kts | 82° |
| 2026-05-05 13:43 | 53.74251 | 10.02160 | 7082 ft | 240 kts | 90° |
| 2026-05-05 13:43 | 53.73904 | 10.04928 | 7804 ft | 247 kts | 116° |
| 2026-05-05 13:43 | 53.73063 | 10.07503 | 8335 ft | 263 kts | 122° |
| 2026-05-05 13:44 | 53.72085 | 10.10217 | 8836 ft | 281 kts | 122° |
| 2026-05-05 13:44 | 53.71053 | 10.13137 | 9387 ft | 296 kts | 122° |
| 2026-05-05 13:44 | 53.70012 | 10.16166 | 9803 ft | 300 kts | 121° |
| 2026-05-05 13:44 | 53.68851 | 10.19081 | 9907 ft | 299 kts | 136° |
| 2026-05-05 13:45 | 53.67211 | 10.21118 | 9913 ft | 294 kts | 158° |
| 2026-05-05 13:45 | 53.65276 | 10.22199 | 9921 ft | 291 kts | 167° |
| 2026-05-05 13:45 | 53.63319 | 10.23047 | 9919 ft | 291 kts | 168° |
| 2026-05-05 13:45 | 53.61331 | 10.23898 | 10102 ft | 299 kts | 168° |
| 2026-05-05 13:46 | 53.59270 | 10.24797 | 10504 ft | 318 kts | 168° |
| 2026-05-05 13:46 | 53.57078 | 10.25774 | 10924 ft | 335 kts | 167° |
| 2026-05-05 13:46 | 53.54794 | 10.26809 | 11582 ft | 344 kts | 167° |
| 2026-05-05 13:46 | 53.52462 | 10.27877 | 12371 ft | 348 kts | 167° |
| 2026-05-05 13:47 | 53.50143 | 10.28942 | 13154 ft | 351 kts | 167° |
| 2026-05-05 13:47 | 53.47787 | 10.30022 | 13904 ft | 355 kts | 167° |
| 2026-05-05 13:47 | 53.45404 | 10.31111 | 14614 ft | 358 kts | 167° |
| 2026-05-05 13:47 | 53.42990 | 10.32210 | 15302 ft | 362 kts | 167° |
| 2026-05-05 13:48 | 53.40564 | 10.33306 | 15957 ft | 366 kts | 167° |
| 2026-05-05 13:48 | 53.38100 | 10.34413 | 16622 ft | 370 kts | 167° |
| 2026-05-05 13:48 | 53.35616 | 10.35528 | 17260 ft | 374 kts | 167° |
| 2026-05-05 13:48 | 53.33103 | 10.36656 | 17884 ft | 377 kts | 168° |
| 2026-05-05 13:49 | 53.30559 | 10.37798 | 18502 ft | 380 kts | 168° |
| 2026-05-05 13:49 | 53.28004 | 10.38941 | 19109 ft | 383 kts | 168° |
| 2026-05-05 13:49 | 53.25424 | 10.40098 | 19682 ft | 386 kts | 168° |
| 2026-05-05 13:49 | 53.22812 | 10.41268 | 20255 ft | 390 kts | 168° |
| 2026-05-05 13:50 | 53.20203 | 10.42433 | 20810 ft | 393 kts | 168° |
| 2026-05-05 13:50 | 53.17576 | 10.43603 | 21353 ft | 396 kts | 168° |
| 2026-05-05 13:50 | 53.14889 | 10.44801 | 21900 ft | 399 kts | 168° |
| 2026-05-05 13:50 | 53.12219 | 10.45988 | 22436 ft | 401 kts | 168° |
| 2026-05-05 13:51 | 53.09532 | 10.47183 | 22971 ft | 403 kts | 168° |
| 2026-05-05 13:51 | 53.06806 | 10.48390 | 23482 ft | 406 kts | 168° |
| 2026-05-05 13:51 | 53.04082 | 10.49596 | 23974 ft | 408 kts | 169° |
| 2026-05-05 13:51 | 53.01343 | 10.50811 | 24443 ft | 411 kts | 169° |
| 2026-05-05 13:52 | 52.98582 | 10.52030 | 24902 ft | 414 kts | 169° |
| 2026-05-05 13:52 | 52.95781 | 10.53269 | 25372 ft | 416 kts | 169° |
| 2026-05-05 13:52 | 52.93022 | 10.54487 | 25856 ft | 417 kts | 169° |
| 2026-05-05 13:52 | 52.90193 | 10.55735 | 26336 ft | 419 kts | 169° |
| 2026-05-05 13:53 | 52.87405 | 10.56960 | 26766 ft | 421 kts | 169° |
| 2026-05-05 13:53 | 52.84573 | 10.58203 | 27183 ft | 423 kts | 169° |
| 2026-05-05 13:53 | 52.81690 | 10.59481 | 27609 ft | 426 kts | 169° |
| 2026-05-05 13:53 | 52.78843 | 10.60750 | 28018 ft | 428 kts | 169° |
| 2026-05-05 13:54 | 52.75959 | 10.62035 | 28422 ft | 430 kts | 169° |
| 2026-05-05 13:54 | 52.73073 | 10.63321 | 28843 ft | 431 kts | 169° |
| 2026-05-05 13:54 | 52.70188 | 10.64605 | 29203 ft | 433 kts | 169° |
| 2026-05-05 13:54 | 52.67262 | 10.65903 | 29554 ft | 435 kts | 170° |
| 2026-05-05 13:55 | 52.64347 | 10.67196 | 29908 ft | 437 kts | 170° |
| 2026-05-05 13:55 | 52.61397 | 10.68501 | 30228 ft | 439 kts | 171° |
| 2026-05-05 13:55 | 52.58445 | 10.69806 | 30549 ft | 441 kts | 171° |
| 2026-05-05 13:55 | 52.55490 | 10.71111 | 30983 ft | 440 kts | 171° |
| 2026-05-05 13:56 | 52.52562 | 10.72405 | 31445 ft | 437 kts | 171° |
| 2026-05-05 13:56 | 52.49636 | 10.73696 | 31882 ft | 436 kts | 171° |
| 2026-05-05 13:56 | 52.46743 | 10.74969 | 32292 ft | 434 kts | 171° |
| 2026-05-05 13:56 | 52.43831 | 10.76245 | 32685 ft | 433 kts | 171° |
| 2026-05-05 13:57 | 52.40924 | 10.77517 | 33079 ft | 431 kts | 171° |
| 2026-05-05 13:57 | 52.38026 | 10.78636 | 33466 ft | 428 kts | 174° |
| 2026-05-05 13:57 | 52.35091 | 10.79502 | 33831 ft | 424 kts | 178° |
| 2026-05-05 13:57 | 52.32186 | 10.80095 | 34183 ft | 420 kts | 180° |
| 2026-05-05 13:58 | 52.29305 | 10.80486 | 34540 ft | 418 kts | 181° |
| 2026-05-05 13:58 | 52.26408 | 10.80889 | 34888 ft | 417 kts | 181° |
| 2026-05-05 13:58 | 52.23520 | 10.81297 | 35156 ft | 416 kts | 181° |
| 2026-05-05 13:58 | 52.20637 | 10.81748 | 35373 ft | 417 kts | 179° |
| 2026-05-05 13:59 | 52.14929 | 10.83455 | 35721 ft | 424 kts | 172° |
| 2026-05-05 13:59 | 52.12079 | 10.84772 | 35897 ft | 427 kts | 168° |
| 2026-05-05 14:00 | 52.06544 | 10.88298 | 36273 ft | 432 kts | 161° |
| 2026-05-05 14:00 | 52.04729 | 10.89759 | 36384 ft | 434 kts | 158° |
| 2026-05-05 14:00 | 52.01187 | 10.92834 | 36594 ft | 435 kts | 158° |
| 2026-05-05 14:00 | 51.98528 | 10.95145 | 36759 ft | 434 kts | 158° |
| 2026-05-05 14:01 | 51.93195 | 10.99759 | 36861 ft | 435 kts | 158° |
| 2026-05-05 14:01 | 51.87877 | 11.04333 | 36861 ft | 433 kts | 158° |
| 2026-05-05 14:02 | 51.82571 | 11.08878 | 36859 ft | 433 kts | 158° |
| 2026-05-05 14:02 | 51.77294 | 11.13386 | 36862 ft | 432 kts | 158° |
| 2026-05-05 14:03 | 51.71961 | 11.17934 | 36855 ft | 432 kts | 158° |
| 2026-05-05 14:03 | 51.66682 | 11.22426 | 36844 ft | 431 kts | 158° |
| 2026-05-05 14:04 | 51.61357 | 11.26941 | 36836 ft | 432 kts | 158° |
| 2026-05-05 14:04 | 51.56088 | 11.31399 | 36836 ft | 430 kts | 158° |
| 2026-05-05 14:05 | 51.50792 | 11.35870 | 36834 ft | 429 kts | 157° |
| 2026-05-05 14:05 | 51.45499 | 11.40177 | 36828 ft | 427 kts | 161° |
| 2026-05-05 14:06 | 51.39967 | 11.43426 | 36829 ft | 420 kts | 169° |
| 2026-05-05 14:06 | 51.34318 | 11.45380 | 36821 ft | 415 kts | 176° |
| 2026-05-05 14:07 | 51.28593 | 11.46186 | 36815 ft | 413 kts | 180° |
| 2026-05-05 14:07 | 51.22855 | 11.46752 | 36815 ft | 412 kts | 180° |
| 2026-05-05 14:08 | 51.17152 | 11.47302 | 36811 ft | 412 kts | 180° |
| 2026-05-05 14:08 | 51.11430 | 11.47852 | 36809 ft | 411 kts | 180° |
| 2026-05-05 14:09 | 51.05708 | 11.48400 | 36813 ft | 412 kts | 180° |
| 2026-05-05 14:09 | 51.00030 | 11.48939 | 36814 ft | 411 kts | 180° |
| 2026-05-05 14:10 | 50.94350 | 11.49480 | 36808 ft | 410 kts | 180° |
| 2026-05-05 14:10 | 50.88673 | 11.50020 | 36803 ft | 410 kts | 180° |
| 2026-05-05 14:11 | 50.82951 | 11.50563 | 36804 ft | 411 kts | 180° |
| 2026-05-05 14:11 | 50.77270 | 11.51103 | 36801 ft | 411 kts | 180° |
| 2026-05-05 14:12 | 50.71586 | 11.51643 | 36801 ft | 411 kts | 180° |
| 2026-05-05 14:12 | 50.65888 | 11.52179 | 36802 ft | 411 kts | 180° |
| 2026-05-05 14:13 | 50.60185 | 11.53025 | 36798 ft | 413 kts | 175° |
| 2026-05-05 14:13 | 50.54551 | 11.54836 | 36797 ft | 417 kts | 168° |
| 2026-05-05 14:14 | 50.49012 | 11.57663 | 36799 ft | 420 kts | 162° |
| 2026-05-05 14:14 | 50.43626 | 11.61205 | 36798 ft | 421 kts | 160° |
| 2026-05-05 14:15 | 50.38265 | 11.64744 | 36798 ft | 420 kts | 160° |
| 2026-05-05 14:15 | 50.32875 | 11.68292 | 36812 ft | 421 kts | 161° |
| 2026-05-05 14:16 | 50.27486 | 11.71830 | 36819 ft | 420 kts | 161° |
| 2026-05-05 14:16 | 50.22095 | 11.75362 | 36822 ft | 421 kts | 161° |
| 2026-05-05 14:17 | 50.16692 | 11.78895 | 36823 ft | 421 kts | 161° |
| 2026-05-05 14:17 | 50.11292 | 11.82416 | 36816 ft | 422 kts | 161° |
| 2026-05-05 14:18 | 50.05891 | 11.85929 | 36809 ft | 424 kts | 161° |
| 2026-05-05 14:18 | 50.00441 | 11.89469 | 36805 ft | 424 kts | 161° |
| 2026-05-05 14:19 | 49.94998 | 11.92993 | 36794 ft | 424 kts | 161° |
| 2026-05-05 14:19 | 49.89643 | 11.96466 | 36786 ft | 424 kts | 161° |
| 2026-05-05 14:20 | 49.84164 | 12.00014 | 36785 ft | 424 kts | 161° |
| 2026-05-05 14:20 | 49.78693 | 12.03529 | 36787 ft | 425 kts | 161° |
| 2026-05-05 14:21 | 49.73331 | 12.07304 | 36792 ft | 427 kts | 156° |
| 2026-05-05 14:21 | 49.68190 | 12.12042 | 36790 ft | 430 kts | 149° |
| 2026-05-05 14:22 | 49.63427 | 12.17617 | 36783 ft | 433 kts | 144° |
| 2026-05-05 14:22 | 49.58680 | 12.23474 | 36776 ft | 440 kts | 144° |
| 2026-05-05 14:23 | 49.53916 | 12.29333 | 36778 ft | 441 kts | 145° |
| 2026-05-05 14:23 | 49.49132 | 12.35193 | 36780 ft | 441 kts | 144° |
| 2026-05-05 14:24 | 49.44332 | 12.41060 | 36783 ft | 441 kts | 144° |
| 2026-05-05 14:24 | 49.39484 | 12.46818 | 36780 ft | 439 kts | 149° |
| 2026-05-05 14:25 | 49.34124 | 12.51076 | 36777 ft | 434 kts | 162° |
| 2026-05-05 14:25 | 49.28339 | 12.53313 | 36771 ft | 429 kts | 175° |
| 2026-05-05 14:26 | 49.22422 | 12.53504 | 36772 ft | 425 kts | 185° |
| 2026-05-05 14:26 | 49.16508 | 12.53201 | 36773 ft | 427 kts | 183° |
| 2026-05-05 14:27 | 49.10567 | 12.52967 | 36769 ft | 427 kts | 184° |
| 2026-05-05 14:27 | 49.04655 | 12.52692 | 36777 ft | 427 kts | 184° |
| 2026-05-05 14:28 | 48.98739 | 12.52283 | 36784 ft | 426 kts | 185° |
| 2026-05-05 14:28 | 48.92805 | 12.51806 | 36784 ft | 426 kts | 185° |
| 2026-05-05 14:29 | 48.86928 | 12.51346 | 36782 ft | 426 kts | 185° |
| 2026-05-05 14:29 | 48.80972 | 12.50887 | 36791 ft | 427 kts | 185° |
| 2026-05-05 14:30 | 48.75082 | 12.50439 | 36782 ft | 427 kts | 185° |
| 2026-05-05 14:30 | 48.69139 | 12.49989 | 36768 ft | 426 kts | 185° |
| 2026-05-05 14:31 | 48.63205 | 12.49540 | 36771 ft | 427 kts | 185° |
| 2026-05-05 14:31 | 48.57284 | 12.49091 | 36777 ft | 427 kts | 185° |
| 2026-05-05 14:32 | 48.51378 | 12.48526 | 36777 ft | 425 kts | 189° |
| 2026-05-05 14:32 | 48.45672 | 12.46528 | 36777 ft | 423 kts | 201° |
| 2026-05-05 14:33 | 48.40373 | 12.42831 | 36772 ft | 420 kts | 212° |
| 2026-05-05 14:33 | 48.35674 | 12.37643 | 36777 ft | 419 kts | 220° |
| 2026-05-05 14:34 | 48.31234 | 12.31986 | 36773 ft | 419 kts | 221° |
| 2026-05-05 14:34 | 48.26811 | 12.26353 | 36777 ft | 419 kts | 220° |
| 2026-05-05 14:35 | 48.22361 | 12.20705 | 36775 ft | 418 kts | 220° |
| 2026-05-05 14:35 | 48.17935 | 12.15105 | 36786 ft | 418 kts | 220° |
| 2026-05-05 14:36 | 48.13514 | 12.09526 | 36776 ft | 418 kts | 220° |
| 2026-05-05 14:36 | 48.09064 | 12.03927 | 36788 ft | 419 kts | 221° |
| 2026-05-05 14:37 | 48.04590 | 11.98306 | 36781 ft | 419 kts | 221° |
| 2026-05-05 14:37 | 48.00154 | 11.92746 | 36783 ft | 418 kts | 221° |
| 2026-05-05 14:38 | 47.95645 | 11.87277 | 36798 ft | 419 kts | 216° |
| 2026-05-05 14:38 | 47.90580 | 11.83000 | 36807 ft | 419 kts | 205° |
| 2026-05-05 14:39 | 47.85073 | 11.80360 | 36837 ft | 422 kts | 194° |
| 2026-05-05 14:39 | 47.79219 | 11.79385 | 36858 ft | 425 kts | 186° |
| 2026-05-05 14:40 | 47.73308 | 11.79045 | 36857 ft | 425 kts | 185° |
| 2026-05-05 14:40 | 47.67406 | 11.78710 | 36855 ft | 426 kts | 185° |
| 2026-05-05 14:41 | 47.61452 | 11.78375 | 36878 ft | 427 kts | 185° |
| 2026-05-05 14:41 | 47.55542 | 11.78044 | 36891 ft | 427 kts | 186° |
| 2026-05-05 14:42 | 47.49646 | 11.77715 | 36907 ft | 426 kts | 185° |
| 2026-05-05 14:42 | 47.43701 | 11.77383 | 36939 ft | 426 kts | 186° |
| 2026-05-05 14:43 | 47.37782 | 11.77055 | 36936 ft | 426 kts | 186° |
| 2026-05-05 14:43 | 47.31855 | 11.76724 | 36952 ft | 427 kts | 186° |
| 2026-05-05 14:44 | 47.25930 | 11.76395 | 36953 ft | 426 kts | 186° |
| 2026-05-05 14:44 | 47.20021 | 11.76070 | 36951 ft | 427 kts | 186° |
| 2026-05-05 14:45 | 47.14182 | 11.75127 | 36960 ft | 423 kts | 194° |
| 2026-05-05 14:45 | 47.08479 | 11.73021 | 36968 ft | 420 kts | 201° |
| 2026-05-05 14:46 | 47.03068 | 11.69990 | 36977 ft | 418 kts | 207° |
| 2026-05-05 14:46 | 46.97805 | 11.66399 | 36973 ft | 418 kts | 207° |
| 2026-05-05 14:47 | 46.92519 | 11.62847 | 36984 ft | 418 kts | 207° |
| 2026-05-05 14:47 | 46.87260 | 11.59328 | 36987 ft | 418 kts | 207° |
| 2026-05-05 14:48 | 46.81960 | 11.55791 | 36987 ft | 418 kts | 207° |
| 2026-05-05 14:48 | 46.76652 | 11.52256 | 36989 ft | 417 kts | 207° |
| 2026-05-05 14:49 | 46.71399 | 11.48766 | 36992 ft | 417 kts | 207° |
| 2026-05-05 14:49 | 46.66101 | 11.45249 | 37002 ft | 417 kts | 207° |
| 2026-05-05 14:50 | 46.60822 | 11.41747 | 36998 ft | 417 kts | 207° |
| 2026-05-05 14:50 | 46.55557 | 11.38264 | 36985 ft | 417 kts | 207° |
| 2026-05-05 14:51 | 46.50326 | 11.34813 | 36966 ft | 417 kts | 207° |
| 2026-05-05 14:51 | 46.44944 | 11.31497 | 36959 ft | 419 kts | 202° |
| 2026-05-05 14:52 | 46.39378 | 11.28889 | 36966 ft | 421 kts | 198° |
| 2026-05-05 14:52 | 46.33668 | 11.26894 | 36974 ft | 422 kts | 197° |
| 2026-05-05 14:53 | 46.27979 | 11.24940 | 36975 ft | 422 kts | 196° |
| 2026-05-05 14:53 | 46.22261 | 11.22987 | 36983 ft | 422 kts | 196° |
| 2026-05-05 14:54 | 46.16531 | 11.21038 | 36983 ft | 423 kts | 196° |
| 2026-05-05 14:54 | 46.10821 | 11.19101 | 36982 ft | 423 kts | 196° |
| 2026-05-05 14:55 | 46.05129 | 11.17173 | 36979 ft | 422 kts | 196° |
| 2026-05-05 14:55 | 45.99446 | 11.15182 | 36977 ft | 422 kts | 197° |
| 2026-05-05 14:56 | 45.93736 | 11.13112 | 36979 ft | 422 kts | 197° |
| 2026-05-05 14:56 | 45.88043 | 11.11062 | 36986 ft | 422 kts | 197° |
| 2026-05-05 14:57 | 45.82375 | 11.09030 | 36989 ft | 422 kts | 197° |
| 2026-05-05 14:57 | 45.76687 | 11.06997 | 36989 ft | 422 kts | 197° |
| 2026-05-05 14:58 | 45.70966 | 11.04891 | 36988 ft | 422 kts | 200° |
| 2026-05-05 14:58 | 45.65451 | 11.02133 | 36980 ft | 418 kts | 205° |
| 2026-05-05 14:59 | 45.60222 | 10.98588 | 36977 ft | 415 kts | 211° |
| 2026-05-05 14:59 | 45.55303 | 10.94351 | 36978 ft | 414 kts | 214° |
| 2026-05-05 15:00 | 45.51225 | 10.90673 | 36978 ft | 414 kts | 214° |
| 2026-05-05 15:00 | 45.45587 | 10.85600 | 36976 ft | 414 kts | 214° |
| 2026-05-05 15:01 | 45.40727 | 10.81232 | 36978 ft | 414 kts | 214° |
| 2026-05-05 15:01 | 45.35858 | 10.76866 | 36976 ft | 413 kts | 214° |
| 2026-05-05 15:02 | 45.31007 | 10.72523 | 36976 ft | 412 kts | 214° |
| 2026-05-05 15:02 | 45.26161 | 10.68192 | 36973 ft | 412 kts | 215° |
| 2026-05-05 15:03 | 45.21323 | 10.63876 | 36971 ft | 411 kts | 214° |
| 2026-05-05 15:03 | 45.16472 | 10.59559 | 36970 ft | 411 kts | 215° |
| 2026-05-05 15:04 | 45.14061 | 10.57418 | 36729 ft | 411 kts | 215° |
| 2026-05-05 15:04 | 45.11632 | 10.55261 | 36438 ft | 408 kts | 214° |
| 2026-05-05 15:04 | 45.09258 | 10.53157 | 36197 ft | 405 kts | 214° |
| 2026-05-05 15:04 | 45.06897 | 10.51066 | 35919 ft | 402 kts | 215° |
| 2026-05-05 15:05 | 45.02159 | 10.46875 | 34929 ft | 401 kts | 214° |
| 2026-05-05 15:05 | 44.99808 | 10.44795 | 34305 ft | 402 kts | 214° |
| 2026-05-05 15:05 | 44.97452 | 10.42716 | 33602 ft | 402 kts | 214° |
| 2026-05-05 15:06 | 44.95087 | 10.40633 | 32922 ft | 401 kts | 214° |
| 2026-05-05 15:06 | 44.92715 | 10.38547 | 32247 ft | 401 kts | 214° |
| 2026-05-05 15:06 | 44.90366 | 10.36481 | 31546 ft | 401 kts | 214° |
| 2026-05-05 15:06 | 44.88034 | 10.34432 | 30846 ft | 401 kts | 214° |
| 2026-05-05 15:07 | 44.85624 | 10.32408 | 30096 ft | 403 kts | 210° |
| 2026-05-05 15:07 | 44.83009 | 10.30916 | 29514 ft | 404 kts | 200° |
| 2026-05-05 15:07 | 44.80271 | 10.30045 | 29023 ft | 403 kts | 192° |
| 2026-05-05 15:07 | 44.77486 | 10.29800 | 28529 ft | 403 kts | 184° |
| 2026-05-05 15:08 | 44.74657 | 10.29987 | 28003 ft | 401 kts | 181° |
| 2026-05-05 15:08 | 44.71900 | 10.30231 | 27499 ft | 397 kts | 181° |
| 2026-05-05 15:08 | 44.69154 | 10.30483 | 27001 ft | 393 kts | 181° |
| 2026-05-05 15:08 | 44.66434 | 10.30732 | 26503 ft | 390 kts | 181° |
| 2026-05-05 15:09 | 44.63772 | 10.30975 | 26019 ft | 386 kts | 181° |
| 2026-05-05 15:09 | 44.61093 | 10.31215 | 25546 ft | 382 kts | 181° |
| 2026-05-05 15:09 | 44.58459 | 10.31452 | 25070 ft | 379 kts | 181° |
| 2026-05-05 15:09 | 44.55854 | 10.31685 | 24599 ft | 376 kts | 181° |
| 2026-05-05 15:10 | 44.53236 | 10.31917 | 24117 ft | 373 kts | 182° |
| 2026-05-05 15:10 | 44.50676 | 10.32146 | 23633 ft | 371 kts | 182° |
| 2026-05-05 15:10 | 44.48084 | 10.32375 | 23149 ft | 370 kts | 182° |
| 2026-05-05 15:10 | 44.45540 | 10.32599 | 22692 ft | 367 kts | 182° |
| 2026-05-05 15:11 | 44.42994 | 10.32824 | 22236 ft | 365 kts | 182° |
| 2026-05-05 15:11 | 44.40462 | 10.33048 | 21784 ft | 363 kts | 182° |
| 2026-05-05 15:11 | 44.37979 | 10.33265 | 21340 ft | 360 kts | 181° |
| 2026-05-05 15:11 | 44.35486 | 10.33485 | 20892 ft | 358 kts | 181° |
| 2026-05-05 15:12 | 44.33001 | 10.33705 | 20447 ft | 356 kts | 181° |
| 2026-05-05 15:12 | 44.30533 | 10.33924 | 19999 ft | 355 kts | 181° |
| 2026-05-05 15:12 | 44.28079 | 10.34139 | 19561 ft | 352 kts | 181° |
| 2026-05-05 15:12 | 44.25675 | 10.34351 | 19130 ft | 350 kts | 180° |
| 2026-05-05 15:13 | 44.23237 | 10.34567 | 18697 ft | 348 kts | 180° |
| 2026-05-05 15:13 | 44.20838 | 10.34780 | 18260 ft | 346 kts | 180° |
| 2026-05-05 15:13 | 44.18435 | 10.34991 | 17822 ft | 344 kts | 180° |
| 2026-05-05 15:13 | 44.16066 | 10.35198 | 17374 ft | 343 kts | 180° |
| 2026-05-05 15:14 | 44.13685 | 10.35386 | 16731 ft | 347 kts | 181° |
| 2026-05-05 15:14 | 44.11252 | 10.35570 | 15816 ft | 357 kts | 181° |
| 2026-05-05 15:14 | 44.08749 | 10.35760 | 15029 ft | 362 kts | 180° |
| 2026-05-05 15:14 | 44.06259 | 10.35955 | 14493 ft | 359 kts | 180° |
| 2026-05-05 15:15 | 44.03766 | 10.36152 | 13970 ft | 356 kts | 180° |
| 2026-05-05 15:15 | 44.01318 | 10.36343 | 13404 ft | 354 kts | 180° |
| 2026-05-05 15:15 | 43.98852 | 10.36534 | 12841 ft | 352 kts | 180° |
| 2026-05-05 15:15 | 43.96418 | 10.36723 | 12285 ft | 349 kts | 180° |
| 2026-05-05 15:16 | 43.94015 | 10.36921 | 11729 ft | 346 kts | 178° |
| 2026-05-05 15:16 | 43.91627 | 10.37451 | 11199 ft | 347 kts | 171° |
| 2026-05-05 15:16 | 43.89363 | 10.38316 | 10679 ft | 345 kts | 167° |
| 2026-05-05 15:16 | 43.87097 | 10.39273 | 10137 ft | 327 kts | 166° |
| 2026-05-05 15:17 | 43.84993 | 10.40176 | 9570 ft | 309 kts | 167° |
| 2026-05-05 15:17 | 43.82998 | 10.41026 | 9014 ft | 294 kts | 167° |
| 2026-05-05 15:17 | 43.81072 | 10.41840 | 8461 ft | 282 kts | 167° |
| 2026-05-05 15:17 | 43.79244 | 10.42609 | 7917 ft | 272 kts | 167° |
| 2026-05-05 15:18 | 43.77478 | 10.43346 | 7382 ft | 263 kts | 167° |
| 2026-05-05 15:18 | 43.75752 | 10.44067 | 6939 ft | 253 kts | 167° |
| 2026-05-05 15:18 | 43.74102 | 10.44755 | 6475 ft | 244 kts | 167° |
| 2026-05-05 15:18 | 43.72501 | 10.45422 | 6028 ft | 237 kts | 166° |
| 2026-05-05 15:19 | 43.70935 | 10.46073 | 5583 ft | 232 kts | 166° |
| 2026-05-05 15:19 | 43.69420 | 10.46703 | 5161 ft | 226 kts | 166° |
| 2026-05-05 15:19 | 43.68002 | 10.47524 | 4994 ft | 221 kts | 148° |
| 2026-05-05 15:19 | 43.66920 | 10.49046 | 4991 ft | 227 kts | 124° |
| 2026-05-05 15:20 | 43.66346 | 10.51083 | 4991 ft | 231 kts | 100° |
| 2026-05-05 15:20 | 43.66409 | 10.53300 | 4991 ft | 235 kts | 76° |
| 2026-05-05 15:20 | 43.67123 | 10.55326 | 4996 ft | 237 kts | 50° |
| 2026-05-05 15:20 | 43.68348 | 10.56861 | 5002 ft | 237 kts | 35° |
| 2026-05-05 15:21 | 43.69687 | 10.58186 | 4996 ft | 236 kts | 33° |
| 2026-05-05 15:21 | 43.71019 | 10.59480 | 4990 ft | 236 kts | 34° |
| 2026-05-05 15:21 | 43.72366 | 10.60825 | 4993 ft | 237 kts | 34° |
| 2026-05-05 15:21 | 43.73687 | 10.62171 | 5002 ft | 237 kts | 35° |
| 2026-05-05 15:22 | 43.75019 | 10.63545 | 4993 ft | 238 kts | 35° |
| 2026-05-05 15:22 | 43.76345 | 10.64921 | 4992 ft | 238 kts | 35° |
| 2026-05-05 15:22 | 43.77697 | 10.66219 | 4994 ft | 236 kts | 24° |
| 2026-05-05 15:22 | 43.79280 | 10.66766 | 4995 ft | 232 kts | 356° |
| 2026-05-05 15:23 | 43.80831 | 10.66339 | 4993 ft | 226 kts | 331° |
| 2026-05-05 15:23 | 43.82099 | 10.65120 | 4903 ft | 222 kts | 311° |
| 2026-05-05 15:23 | 43.83139 | 10.63566 | 4615 ft | 221 kts | 308° |
| 2026-05-05 15:23 | 43.84152 | 10.61978 | 4319 ft | 222 kts | 308° |
| 2026-05-05 15:24 | 43.85189 | 10.60383 | 4046 ft | 220 kts | 309° |
| 2026-05-05 15:24 | 43.86206 | 10.58846 | 3824 ft | 214 kts | 309° |
| 2026-05-05 15:24 | 43.86895 | 10.57117 | 3598 ft | 201 kts | 278° |
| 2026-05-05 15:24 | 43.86785 | 10.55321 | 3566 ft | 179 kts | 248° |
| 2026-05-05 15:25 | 43.86147 | 10.53917 | 3571 ft | 169 kts | 231° |
| 2026-05-05 15:25 | 43.85426 | 10.52719 | 3577 ft | 152 kts | 230° |
| 2026-05-05 15:25 | 43.84789 | 10.51674 | 3531 ft | 132 kts | 230° |
| 2026-05-05 15:25 | 43.84211 | 10.50717 | 3521 ft | 129 kts | 230° |
| 2026-05-05 15:26 | 43.83555 | 10.49861 | 3471 ft | 129 kts | 214° |
| 2026-05-05 15:26 | 43.82763 | 10.49285 | 3322 ft | 129 kts | 206° |
| 2026-05-05 15:26 | 43.81950 | 10.48782 | 3141 ft | 128 kts | 205° |
| 2026-05-05 15:26 | 43.81128 | 10.48276 | 2947 ft | 129 kts | 205° |
| 2026-05-05 15:27 | 43.80309 | 10.47767 | 2757 ft | 129 kts | 205° |
| 2026-05-05 15:27 | 43.79491 | 10.47256 | 2563 ft | 129 kts | 205° |
| 2026-05-05 15:27 | 43.78681 | 10.46750 | 2368 ft | 129 kts | 204° |
| 2026-05-05 15:27 | 43.77858 | 10.46234 | 2170 ft | 128 kts | 204° |
| 2026-05-05 15:28 | 43.77054 | 10.45729 | 1971 ft | 128 kts | 204° |
| 2026-05-05 15:28 | 43.76237 | 10.45215 | 1773 ft | 129 kts | 204° |
| 2026-05-05 15:28 | 43.75411 | 10.44696 | 1573 ft | 129 kts | 204° |
| 2026-05-05 15:28 | 43.74593 | 10.44209 | 1379 ft | 128 kts | 201° |
| 2026-05-05 15:29 | 43.73759 | 10.43774 | 1211 ft | 128 kts | 202° |
| 2026-05-05 15:29 | 43.72939 | 10.43329 | 1030 ft | 127 kts | 203° |
| 2026-05-05 15:29 | 43.72134 | 10.42867 | 832 ft | 125 kts | 205° |
| 2026-05-05 15:29 | 43.71347 | 10.42353 | 617 ft | 124 kts | 209° |
| 2026-05-05 15:30 | 43.70612 | 10.41742 | 394 ft | 121 kts | 218° |
| 2026-05-05 15:30 | 43.69939 | 10.41049 | 240 ft | 122 kts | 219° |
| 2026-05-05 15:30 | 43.69259 | 10.40342 | 84 ft | 121 kts | 220° |
| 2026-05-05 15:30 | 43.68627 | 10.39680 | 23 ft | 93 kts | 218° |
| 2026-05-05 15:31 | 43.68245 | 10.39286 | 22 ft | 52 kts | 218° |
| 2026-05-05 15:31 | 43.68106 | 10.39123 | 22 ft | 10 kts | 294° |
| 2026-05-05 15:31 | 43.68140 | 10.39100 | 22 ft | 5 kts | 313° |
| 2026-05-05 15:31 | 43.68169 | 10.39055 | 22 ft | 6 kts | 312° |
| 2026-05-05 15:32 | 43.68203 | 10.39003 | 22 ft | 8 kts | 312° |
| 2026-05-05 15:32 | 43.68257 | 10.38981 | 22 ft | 9 kts | 15° |
| 2026-05-05 15:32 | 43.68317 | 10.39034 | 22 ft | 11 kts | 37° |
| 2026-05-05 15:32 | 43.68388 | 10.39106 | 23 ft | 14 kts | 37° |
| 2026-05-05 15:33 | 43.68481 | 10.39203 | 23 ft | 19 kts | 37° |
| 2026-05-05 15:33 | 43.68613 | 10.39340 | 23 ft | 27 kts | 38° |
| 2026-05-05 15:33 | 43.68788 | 10.39519 | 23 ft | 34 kts | 39° |
| 2026-05-05 15:33 | 43.68978 | 10.39716 | 24 ft | 33 kts | 37° |
| 2026-05-05 15:34 | 43.69143 | 10.39884 | 25 ft | 21 kts | 35° |
| 2026-05-05 15:34 | 43.69286 | 10.39907 | 25 ft | 21 kts | 353° |
| 2026-05-05 15:34 | 43.69402 | 10.39887 | 25 ft | 12 kts | 354° |
| 2026-05-05 15:34 | 43.69490 | 10.39899 | 26 ft | 13 kts | 14° |
| 2026-05-05 15:35 | 43.69584 | 10.39929 | 26 ft | 14 kts | 10° |
| 2026-05-05 15:35 | 43.69666 | 10.39943 | 26 ft | 10 kts | 353° |
| 2026-05-05 15:35 | 43.69719 | 10.39907 | 26 ft | 8 kts | 352° |
| 2026-05-05 15:35 | 43.69762 | 10.39913 | 26 ft | 2 kts | 9° |
| 2026-05-05 15:36 | 43.69764 | 10.39913 | 26 ft | 0 kts | 9° |